createdAt,value
2019-01-19T00:00:27.901Z,82.70
2019-01-19T00:03:02.131Z,82.60
2019-01-19T00:05:46.377Z,82.80
2019-01-19T00:08:22.441Z,83.10
2019-01-19T00:11:11.621Z,83.50
2019-01-19T00:13:51.241Z,83.40
2019-01-19T00:16:29.587Z,83.30
2019-01-19T00:19:35.445Z,83.50
2019-01-19T00:22:08.022Z,83.80
2019-01-19T00:24:43.414Z,83.80
2019-01-19T00:27:22.023Z,84.90
2019-01-19T00:30:03.369Z,84.00
2019-01-19T00:32:39.749Z,83.60
2019-01-19T00:35:33.605Z,83.60
2019-01-19T00:38:08.808Z,83.60
2019-01-19T00:40:53.439Z,83.30
2019-01-19T00:43:22.819Z,83.40
2019-01-19T00:45:58.179Z,83.70
2019-01-19T00:48:42.389Z,83.70
2019-01-19T00:51:26.993Z,83.60
2019-01-19T00:54:08.624Z,83.50
2019-01-19T00:56:52.977Z,83.30
2019-01-19T00:59:25.547Z,82.90
2019-01-19T01:02:22.462Z,82.40
2019-01-19T01:04:55.053Z,82.50
2019-01-19T01:07:39.843Z,82.80
2019-01-19T01:10:24.396Z,82.30
2019-01-19T01:13:21.287Z,82.00
2019-01-19T01:15:59.547Z,81.50
2019-01-19T01:18:49.719Z,80.40
2019-01-19T01:21:40.653Z,80.20
2019-01-19T01:24:28.418Z,79.90
2019-01-19T01:27:31.413Z,79.60
2019-01-19T01:30:22.083Z,79.60
2019-01-19T01:33:03.567Z,79.40
2019-01-19T01:35:54.407Z,79.60
2019-01-19T01:38:32.874Z,79.30
2019-01-19T01:41:11.433Z,80.00
2019-01-19T01:43:50.214Z,78.50
2019-01-19T01:46:47.163Z,78.20
2019-01-19T01:49:21.113Z,78.60
2019-01-19T01:52:04.561Z,80.00
2019-01-19T01:54:39.841Z,80.60
2019-01-19T01:57:11.897Z,81.40
2019-01-19T02:00:10.379Z,81.30
2019-01-19T02:03:05.741Z,81.30
2019-01-19T02:05:50.287Z,81.00
2019-01-19T02:08:28.721Z,81.30
2019-01-19T02:11:17.861Z,81.60
2019-01-19T02:13:56.464Z,81.90
2019-01-19T02:16:48.525Z,82.10
2019-01-19T02:19:42.778Z,82.30
2019-01-19T02:22:24.691Z,82.60
2019-01-19T02:25:15.199Z,82.60
2019-01-19T02:28:10.445Z,82.80
2019-01-19T02:31:05.517Z,82.90
2019-01-19T02:33:38.087Z,83.80
2019-01-19T02:36:13.306Z,83.10
2019-01-19T02:38:57.717Z,83.20
2019-01-19T02:41:33.200Z,83.30
2019-01-19T02:44:23.312Z,83.40
2019-01-19T02:46:58.705Z,83.60
2019-01-19T02:49:49.332Z,83.60
2019-01-19T02:52:42.442Z,83.60
2019-01-19T02:55:40.125Z,83.60
2019-01-19T02:58:21.653Z,83.60
2019-01-19T03:01:16.988Z,83.70
2019-01-19T03:03:49.627Z,83.50
2019-01-19T03:06:22.277Z,83.60
2019-01-19T03:09:16.303Z,83.60
2019-01-19T03:11:54.645Z,83.60
2019-01-19T03:14:38.918Z,83.60
2019-01-19T03:17:17.271Z,83.50
2019-01-19T03:19:56.559Z,83.30
2019-01-19T03:22:44.465Z,83.20
2019-01-19T03:25:28.748Z,83.10
2019-01-19T03:28:01.310Z,82.50
2019-01-19T03:30:59.215Z,82.10
2019-01-19T03:33:31.834Z,81.60
2019-01-19T03:36:04.783Z,81.20
2019-01-19T03:38:44.268Z,81.20
2019-01-19T03:41:36.792Z,81.20
2019-01-19T03:44:18.215Z,81.10
2019-01-19T03:47:10.760Z,81.20
2019-01-19T03:49:46.300Z,81.30
2019-01-19T03:52:21.715Z,81.40
2019-01-19T03:55:20.079Z,81.90
2019-01-19T03:58:01.211Z,82.40
2019-01-19T04:00:42.533Z,82.80
2019-01-19T04:03:29.972Z,83.10
2019-01-19T04:06:12.444Z,83.50
2019-01-19T04:09:12.638Z,83.70
2019-01-19T04:11:51.183Z,83.60
2019-01-19T04:14:43.229Z,83.60
2019-01-19T04:17:31.905Z,83.70
2019-01-19T04:20:07.183Z,83.60
2019-01-19T04:22:36.633Z,83.90
2019-01-19T04:25:18.411Z,84.10
2019-01-19T04:27:47.697Z,84.20
2019-01-19T04:30:17.023Z,84.20
2019-01-19T04:32:46.309Z,84.30
2019-01-19T04:35:15.620Z,84.20
2019-01-19T04:37:44.919Z,83.80
2019-01-19T04:40:14.240Z,83.90
2019-01-19T04:42:44.523Z,84.00
2019-01-19T04:45:14.046Z,84.20
2019-01-19T04:47:43.374Z,84.30
2019-01-19T04:50:12.693Z,84.50
2019-01-19T04:52:42.001Z,84.90
2019-01-19T04:55:11.399Z,85.10
2019-01-19T04:57:40.701Z,85.00
2019-01-19T05:00:13.367Z,84.80
2019-01-19T05:02:43.748Z,84.80
2019-01-19T05:05:13.182Z,84.70
2019-01-19T05:07:42.475Z,84.30
2019-01-19T05:10:12.633Z,84.20
2019-01-19T05:12:41.914Z,84.30
2019-01-19T05:15:14.094Z,84.40
2019-01-19T05:17:43.852Z,84.40
2019-01-19T05:20:14.434Z,85.60
2019-01-19T05:22:43.816Z,84.80
2019-01-19T05:25:13.572Z,84.80
2019-01-19T05:27:42.846Z,84.40
2019-01-19T05:30:17.171Z,84.40
2019-01-19T05:32:46.713Z,84.40
2019-01-19T05:35:16.193Z,84.60
2019-01-19T05:37:45.445Z,85.10
2019-01-19T05:40:14.823Z,85.10
2019-01-19T05:42:44.114Z,85.00
2019-01-19T05:45:16.562Z,84.60
2019-01-19T05:47:45.880Z,84.20
2019-01-19T05:50:17.607Z,83.60
2019-01-19T05:52:46.956Z,83.60
2019-01-19T05:55:16.253Z,83.70
2019-01-19T05:57:45.578Z,83.30
2019-01-19T06:00:24.846Z,82.90
2019-01-19T06:02:54.115Z,83.20
2019-01-19T06:05:23.552Z,83.40
2019-01-19T06:07:52.809Z,84.20
2019-01-19T06:10:22.107Z,83.50
2019-01-19T06:12:51.583Z,83.50
2019-01-19T06:15:20.871Z,83.80
2019-01-19T06:17:50.253Z,83.70
2019-01-19T06:20:19.560Z,84.10
2019-01-19T06:22:48.849Z,83.80
2019-01-19T06:25:18.124Z,83.80
2019-01-19T06:27:47.470Z,83.70
2019-01-19T06:30:21.933Z,83.80
2019-01-19T06:32:51.279Z,83.70
2019-01-19T06:35:20.611Z,83.60
2019-01-19T06:37:49.979Z,83.50
2019-01-19T06:40:19.337Z,83.40
2019-01-19T06:42:48.785Z,83.30
2019-01-19T06:45:20.370Z,83.40
2019-01-19T06:47:49.732Z,83.30
2019-01-19T06:50:19.142Z,83.30
2019-01-19T06:52:48.474Z,83.40
2019-01-19T06:55:24.163Z,83.30
2019-01-19T06:57:53.434Z,83.30
2019-01-19T07:00:22.958Z,83.30
2019-01-19T07:02:52.320Z,83.60
2019-01-19T07:05:21.700Z,83.40
2019-01-19T07:07:51.342Z,84.60
2019-01-19T07:10:25.492Z,83.70
2019-01-19T07:12:54.909Z,83.40
2019-01-19T07:15:24.678Z,83.50
2019-01-19T07:17:54.020Z,83.40
2019-01-19T07:20:26.246Z,83.00
2019-01-19T07:22:55.572Z,82.50
2019-01-19T07:25:25.024Z,82.30
2019-01-19T07:27:54.640Z,83.20
2019-01-19T07:30:25.027Z,82.30
2019-01-19T07:32:54.396Z,82.20
2019-01-19T07:35:23.675Z,82.20
2019-01-19T07:37:52.981Z,82.40
2019-01-19T07:40:22.384Z,82.40
2019-01-19T07:42:56.097Z,83.20
2019-01-19T07:45:25.447Z,82.30
2019-01-19T07:47:54.727Z,81.80
2019-01-19T07:50:24.054Z,82.00
2019-01-19T07:52:53.398Z,80.90
2019-01-19T07:55:22.832Z,80.80
2019-01-19T07:57:52.324Z,80.50
2019-01-19T08:00:27.039Z,80.70
2019-01-19T08:02:56.477Z,80.70
2019-01-19T08:05:25.824Z,80.60
2019-01-19T08:07:56.429Z,80.90
2019-01-19T08:10:25.673Z,81.90
2019-01-19T08:12:55.016Z,82.00
2019-01-19T08:15:29.609Z,82.10
2019-01-19T08:17:59.056Z,81.50
2019-01-19T08:20:28.372Z,80.90
2019-01-19T08:22:59.030Z,79.80
2019-01-19T08:25:28.273Z,78.50
2019-01-19T08:27:57.651Z,79.00
2019-01-19T08:30:28.998Z,78.90
2019-01-19T08:32:58.327Z,78.50
2019-01-19T08:35:28.141Z,78.10
2019-01-19T08:37:57.444Z,76.70
2019-01-19T08:40:32.518Z,77.10
2019-01-19T08:43:12.338Z,77.30
2019-01-19T08:45:42.354Z,76.80
2019-01-19T08:48:11.777Z,76.60
2019-01-19T08:50:41.284Z,76.40
2019-01-19T08:53:10.637Z,76.10
2019-01-19T08:55:41.088Z,76.70
2019-01-19T08:58:10.790Z,77.20
2019-01-19T09:00:41.193Z,76.10
2019-01-19T09:03:11.826Z,75.80
2019-01-19T09:05:41.150Z,75.60
2019-01-19T09:08:10.428Z,76.00
2019-01-19T09:10:39.722Z,74.50
2019-01-19T09:13:09.106Z,74.90
2019-01-19T09:15:38.496Z,75.00
2019-01-19T09:18:07.817Z,74.20
2019-01-19T09:20:37.233Z,74.80
2019-01-19T09:23:16.977Z,73.90
2019-01-19T09:25:46.585Z,73.50
2019-01-19T09:28:16.676Z,72.80
2019-01-19T09:30:46.047Z,72.90
2019-01-19T09:33:15.584Z,73.20
2019-01-19T09:35:44.897Z,73.10
2019-01-19T09:38:14.280Z,72.50
2019-01-19T09:40:43.693Z,72.60
2019-01-19T09:43:14.459Z,72.20
2019-01-19T09:45:44.067Z,71.80
2019-01-19T09:48:13.362Z,72.00
2019-01-19T09:50:42.696Z,71.50
2019-01-19T09:53:12.089Z,70.80
2019-01-19T09:55:41.535Z,70.70
2019-01-19T09:58:10.865Z,70.30
2019-01-19T10:00:45.530Z,71.40
2019-01-19T10:03:11.207Z,70.90
2019-01-19T10:05:40.481Z,71.40
2019-01-19T10:08:09.923Z,71.30
2019-01-19T10:10:39.213Z,71.10
2019-01-19T10:13:08.529Z,70.90
2019-01-19T10:15:37.846Z,70.70
2019-01-19T10:18:07.699Z,70.50
2019-01-19T10:20:37.246Z,70.40
2019-01-19T10:23:06.881Z,70.00
2019-01-19T10:25:37.317Z,70.90
2019-01-19T10:28:06.771Z,69.80
2019-01-19T10:30:36.197Z,69.50
2019-01-19T10:33:05.620Z,69.30
2019-01-19T10:35:35.436Z,68.80
2019-01-19T10:38:04.792Z,68.90
2019-01-19T10:40:34.225Z,68.80
2019-01-19T10:43:03.564Z,68.30
2019-01-19T10:45:32.914Z,67.80
2019-01-19T10:48:02.318Z,67.80
2019-01-19T10:50:31.646Z,67.80
2019-01-19T10:53:01.888Z,69.10
2019-01-19T10:55:31.923Z,67.50
2019-01-19T10:58:01.260Z,67.90
2019-01-19T11:00:34.894Z,68.80
2019-01-19T11:03:04.388Z,69.40
2019-01-19T11:05:33.992Z,68.80
2019-01-19T11:08:05.233Z,68.90
2019-01-19T11:10:35.546Z,68.60
2019-01-19T11:13:05.008Z,68.80
2019-01-19T11:15:34.644Z,67.90
2019-01-19T11:18:04.048Z,67.80
2019-01-19T11:20:35.432Z,68.20
2019-01-19T11:23:04.801Z,67.80
2019-01-19T11:25:34.237Z,67.50
2019-01-19T11:28:03.603Z,67.30
2019-01-19T11:30:33.727Z,67.40
2019-01-19T11:33:03.361Z,66.90
2019-01-19T11:35:32.654Z,66.80
2019-01-19T11:38:01.992Z,66.00
2019-01-19T11:40:33.841Z,66.40
2019-01-19T11:43:03.239Z,65.60
2019-01-19T11:45:32.656Z,66.30
2019-01-19T11:48:02.220Z,64.60
2019-01-19T11:50:31.695Z,64.90
2019-01-19T11:53:01.016Z,65.20
2019-01-19T11:55:30.435Z,64.50
2019-01-19T11:58:01.921Z,65.30
2019-01-19T12:00:37.447Z,65.80
2019-01-19T12:03:07.094Z,65.70
2019-01-19T12:05:36.909Z,65.70
2019-01-19T12:08:07.260Z,65.40
2019-01-19T12:10:36.638Z,66.10
2019-01-19T12:13:06.079Z,65.00
2019-01-19T12:15:35.431Z,65.70
2019-01-19T12:18:05.030Z,65.40
2019-01-19T12:20:42.447Z,65.80
2019-01-19T12:23:11.836Z,65.30
2019-01-19T12:25:41.234Z,65.60
2019-01-19T12:28:10.542Z,64.90
2019-01-19T12:30:40.009Z,65.30
2019-01-19T12:33:09.514Z,65.50
2019-01-19T12:35:38.958Z,65.40
2019-01-19T12:38:08.338Z,65.60
2019-01-19T12:40:37.666Z,66.00
2019-01-19T12:43:10.259Z,65.50
2019-01-19T12:45:42.303Z,65.00
2019-01-19T12:48:13.254Z,64.70
2019-01-19T12:50:44.389Z,64.90
2019-01-19T12:53:13.983Z,64.80
2019-01-19T12:55:43.315Z,65.30
2019-01-19T12:58:13.274Z,65.20
2019-01-19T13:00:42.807Z,65.60
2019-01-19T13:03:12.491Z,65.40
2019-01-19T13:05:51.362Z,65.80
2019-01-19T13:08:23.979Z,66.20
2019-01-19T13:11:17.272Z,66.20
2019-01-19T13:13:47.731Z,65.70
2019-01-19T13:16:23.073Z,65.50
2019-01-19T13:18:58.591Z,65.90
2019-01-19T13:21:51.561Z,66.10
2019-01-19T13:24:33.257Z,65.10
2019-01-19T13:27:35.356Z,65.50
2019-01-19T13:30:32.292Z,65.70
2019-01-19T13:33:11.148Z,65.50
2019-01-19T13:35:52.366Z,65.60
2019-01-19T13:38:49.174Z,66.20
2019-01-19T13:41:50.666Z,66.40
2019-01-19T13:44:53.101Z,66.60
2019-01-19T13:47:43.857Z,66.90
2019-01-19T13:50:25.482Z,67.30
2019-01-19T13:53:06.799Z,67.60
2019-01-19T13:55:55.871Z,67.40
2019-01-19T13:58:51.203Z,66.80
2019-01-19T14:01:38.431Z,66.40
2019-01-19T14:04:32.081Z,66.50
2019-01-19T14:07:19.759Z,67.10
2019-01-19T14:10:16.872Z,66.80
2019-01-19T14:12:55.350Z,66.80
2019-01-19T14:15:29.262Z,66.70
2019-01-19T14:18:10.669Z,67.30
2019-01-19T14:20:50.175Z,67.50
2019-01-19T14:23:34.591Z,67.00
2019-01-19T14:26:18.841Z,66.90
2019-01-19T14:29:06.215Z,66.80
2019-01-19T14:32:15.209Z,67.00
2019-01-19T14:35:07.741Z,66.90
2019-01-19T14:37:51.835Z,67.00
2019-01-19T14:40:36.393Z,66.90
2019-01-19T14:43:30.069Z,66.90
2019-01-19T14:46:10.961Z,66.70
2019-01-19T14:48:56.671Z,67.00
2019-01-19T14:51:50.493Z,66.90
2019-01-19T14:54:39.739Z,66.90
2019-01-19T14:57:24.431Z,67.20
2019-01-19T15:00:00.189Z,68.00
2019-01-19T15:02:45.020Z,67.90
2019-01-19T15:05:30.721Z,68.20
2019-01-19T15:08:12.210Z,68.50
2019-01-19T15:10:59.849Z,68.90
2019-01-19T15:13:35.467Z,69.10
2019-01-19T15:16:23.126Z,69.70
2019-01-19T15:19:28.830Z,70.20
2019-01-19T15:22:19.751Z,70.60
2019-01-19T15:24:52.380Z,71.00
2019-01-19T15:27:33.767Z,71.20
2019-01-19T15:30:18.374Z,71.00
2019-01-19T15:33:12.234Z,71.20
2019-01-19T15:35:59.956Z,71.70
2019-01-19T15:38:35.249Z,72.00
2019-01-19T15:41:16.771Z,72.60
2019-01-19T15:44:09.151Z,73.30
2019-01-19T15:46:54.229Z,73.70
2019-01-19T15:49:50.953Z,74.50
2019-01-19T15:52:26.282Z,74.90
2019-01-19T15:55:32.347Z,75.70
2019-01-19T15:58:11.113Z,76.30
2019-01-19T16:00:46.898Z,77.00
2019-01-19T16:03:25.412Z,77.60
2019-01-19T16:06:03.754Z,77.90
2019-01-19T16:08:58.817Z,78.50
2019-01-19T16:11:57.214Z,79.00
2019-01-19T16:14:39.000Z,79.40
2019-01-19T16:17:20.372Z,79.20
2019-01-19T16:20:05.245Z,79.30
2019-01-19T16:22:40.752Z,79.50
2019-01-19T16:25:28.747Z,79.80
2019-01-19T16:28:19.169Z,79.90
2019-01-19T16:31:08.316Z,80.00
2019-01-19T16:33:40.923Z,80.10
2019-01-19T16:36:19.440Z,80.10
2019-01-19T16:39:06.001Z,80.10
2019-01-19T16:41:53.849Z,80.10
2019-01-19T16:44:38.797Z,80.10
2019-01-19T16:47:27.976Z,80.00
2019-01-19T16:50:06.349Z,79.90
2019-01-19T16:52:38.901Z,80.00
2019-01-19T16:55:14.675Z,79.20
2019-01-19T16:58:08.863Z,79.50
2019-01-19T17:00:47.180Z,79.50
2019-01-19T17:03:22.349Z,79.10
2019-01-19T17:06:29.874Z,79.10
2019-01-19T17:09:32.614Z,78.80
2019-01-19T17:12:00.803Z,78.90
2019-01-19T17:14:49.970Z,79.30
2019-01-19T17:17:37.801Z,79.60
2019-01-19T17:20:10.358Z,80.20
2019-01-19T17:22:51.865Z,80.60
2019-01-19T17:25:43.830Z,80.90
2019-01-19T17:28:19.024Z,81.70
2019-01-19T17:31:14.816Z,81.90
2019-01-19T17:34:10.058Z,82.10
2019-01-19T17:36:51.569Z,82.40
2019-01-19T17:39:44.453Z,81.60
2019-01-19T17:42:21.716Z,82.10
2019-01-19T17:44:54.393Z,81.80
2019-01-19T17:47:36.045Z,82.00
2019-01-19T17:50:41.587Z,82.30
2019-01-19T17:53:30.829Z,82.20
2019-01-19T17:56:19.977Z,82.40
2019-01-19T17:58:58.725Z,82.30
2019-01-19T18:01:31.572Z,82.90
2019-01-19T18:04:20.205Z,83.00
2019-01-19T18:06:55.681Z,82.60
2019-01-19T18:09:47.586Z,82.40
2019-01-19T18:12:33.984Z,82.10
2019-01-19T18:15:24.985Z,81.80
2019-01-19T18:18:09.605Z,81.80
2019-01-19T18:20:57.153Z,81.80
2019-01-19T18:23:52.395Z,81.80
2019-01-19T18:26:49.376Z,81.60
2019-01-19T18:29:24.939Z,81.30
2019-01-19T18:32:03.334Z,81.20
2019-01-19T18:34:44.320Z,81.10
2019-01-19T18:37:25.954Z,82.00
2019-01-19T18:40:16.768Z,80.40
2019-01-19T18:42:59.121Z,79.80
2019-01-19T18:45:49.743Z,79.10
2019-01-19T18:48:54.461Z,78.80
2019-01-19T18:51:34.804Z,78.20
2019-01-19T18:54:31.121Z,78.20
2019-01-19T18:57:22.059Z,77.70
2019-01-19T19:00:13.118Z,77.50
2019-01-19T19:02:56.954Z,77.70
2019-01-19T19:05:56.799Z,77.40
2019-01-19T19:08:29.601Z,77.50
2019-01-19T19:11:18.788Z,77.40
2019-01-19T19:14:00.200Z,78.10
2019-01-19T19:16:38.929Z,77.70
2019-01-19T19:19:20.700Z,77.40
2019-01-19T19:22:16.022Z,77.60
2019-01-19T19:24:57.078Z,76.70
2019-01-19T19:27:59.991Z,76.40
2019-01-19T19:30:41.413Z,76.10
2019-01-19T19:33:14.047Z,76.30
2019-01-19T19:36:03.378Z,76.40
2019-01-19T19:38:47.370Z,76.60
2019-01-19T19:41:39.399Z,76.40
2019-01-19T19:44:12.017Z,75.90
2019-01-19T19:46:50.492Z,76.50
2019-01-19T19:49:46.499Z,76.60
2019-01-19T19:52:16.244Z,76.50
2019-01-19T19:54:51.195Z,76.30
2019-01-19T19:57:20.715Z,76.70
2019-01-19T19:59:50.161Z,76.80
2019-01-19T20:02:19.962Z,76.90
2019-01-19T20:04:49.761Z,77.20
2019-01-19T20:07:19.229Z,77.40
2019-01-19T20:09:48.772Z,77.70
2019-01-19T20:12:18.811Z,78.10
2019-01-19T20:14:48.654Z,78.50
2019-01-19T20:17:18.108Z,79.00
2019-01-19T20:19:47.667Z,79.10
2019-01-19T20:22:17.473Z,79.20
2019-01-19T20:24:46.872Z,79.50
2019-01-19T20:27:16.479Z,79.70
2019-01-19T20:29:46.681Z,79.70
2019-01-19T20:32:16.607Z,79.70
2019-01-19T20:34:45.925Z,79.70
2019-01-19T20:37:15.405Z,79.70
2019-01-19T20:39:48.169Z,79.70
2019-01-19T20:42:17.534Z,79.70
2019-01-19T20:44:46.977Z,79.40
2019-01-19T20:47:16.433Z,79.40
2019-01-19T20:49:45.896Z,79.70
2019-01-19T20:52:15.299Z,79.80
2019-01-19T20:54:44.828Z,80.10
2019-01-19T20:57:14.164Z,80.40
2019-01-19T21:01:40.142Z,80.50
2019-01-19T21:04:15.777Z,80.50
2019-01-19T21:06:42.898Z,80.50
2019-01-19T21:09:14.334Z,80.30
2019-01-19T21:11:45.466Z,80.40
2019-01-19T21:14:19.502Z,80.30
2019-01-19T21:16:50.042Z,79.80
2019-01-19T21:19:20.507Z,79.70
2019-01-19T21:21:51.266Z,79.60
2019-01-19T21:24:23.839Z,79.60
2019-01-19T21:26:54.355Z,79.90
2019-01-19T21:29:25.103Z,79.90
2019-01-19T21:31:55.493Z,81.00
2019-01-19T21:34:25.867Z,80.10
2019-01-19T21:36:56.458Z,79.80
2019-01-19T21:39:27.409Z,79.70
2019-01-19T21:41:58.749Z,79.60
2019-01-19T21:44:29.135Z,80.30
2019-01-19T21:47:00.160Z,80.40
2019-01-19T21:49:30.696Z,80.70
2019-01-19T21:52:01.235Z,81.00
2019-01-19T21:54:31.987Z,80.80
2019-01-19T21:57:02.652Z,80.60
2019-01-19T21:59:33.301Z,80.60
2019-01-19T22:02:04.582Z,80.60
2019-01-19T22:04:35.335Z,80.60
2019-01-19T22:07:06.050Z,80.40
2019-01-19T22:09:36.694Z,80.20
2019-01-19T22:12:07.335Z,79.70
2019-01-19T22:14:37.850Z,79.70
2019-01-19T22:17:08.842Z,79.20
2019-01-19T22:19:39.655Z,79.30
2019-01-19T22:22:10.895Z,78.70
2019-01-19T22:24:41.639Z,78.20
2019-01-19T22:27:15.850Z,78.10
2019-01-19T22:29:46.256Z,78.20
2019-01-19T22:32:16.868Z,77.90
2019-01-19T22:34:47.898Z,78.10
2019-01-19T22:37:18.686Z,78.60
2019-01-19T22:39:49.574Z,78.40
2019-01-19T22:42:20.265Z,78.40
2019-01-19T22:44:51.011Z,78.00
2019-01-19T22:47:22.299Z,78.20
2019-01-19T22:49:52.814Z,78.00
2019-01-19T22:52:23.311Z,77.90
2019-01-19T22:54:53.804Z,77.80
2019-01-19T22:57:24.145Z,77.60
2019-01-19T22:59:54.866Z,77.40
2019-01-19T23:02:25.346Z,77.40
2019-01-19T23:04:55.920Z,77.40
2019-01-19T23:07:26.302Z,77.40
2019-01-19T23:09:56.906Z,77.50
2019-01-19T23:12:27.313Z,77.80
2019-01-19T23:14:58.309Z,78.00
2019-01-19T23:17:28.696Z,78.10
2019-01-19T23:19:59.166Z,78.30
2019-01-19T23:22:29.608Z,79.30
2019-01-19T23:25:00.266Z,78.60
2019-01-19T23:27:32.103Z,78.70
2019-01-19T23:30:03.938Z,79.00
2019-01-19T23:32:34.371Z,79.20
2019-01-19T23:35:05.628Z,80.20
2019-01-19T23:37:36.642Z,79.60
2019-01-19T23:40:07.504Z,79.90
2019-01-19T23:42:37.921Z,79.70
2019-01-19T23:45:08.288Z,79.70
2019-01-19T23:47:39.736Z,80.20
2019-01-19T23:50:10.120Z,79.20
2019-01-19T23:52:40.568Z,79.20
2019-01-19T23:55:11.181Z,78.90
2019-01-19T23:57:41.820Z,78.90
